MST,Max TemperatureF,Mean TemperatureF,Min TemperatureF,Max Dew PointF,MeanDew PointF,Min DewpointF,Max Humidity, Mean Humidity, Min Humidity, Max Sea Level PressureIn, Mean Sea Level PressureIn, Min Sea Level PressureIn, Max VisibilityMiles, Mean VisibilityMiles, Min VisibilityMiles, Max Wind SpeedMPH, Mean Wind SpeedMPH, Max Gust SpeedMPH,PrecipitationIn, CloudCover, Events, WindDirDegrees
2012-11-1,59,47,35,35,29,25,79,56,33,29.96,29.82,29.74,10,10,10,39,10,47,T,4,Rain,224
2012-11-2,54,42,29,29,25,23,69,51,32,30.14,30.08,29.97,10,10,10,16,8,20,0.00,4,,206
2012-11-3,58,43,28,31,26,21,72,48,24,30.22,30.14,30.07,10,10,10,21,11,25,0.00,2,,206
2012-11-4,59,51,42,35,33,30,65,53,40,30.37,30.25,30.12,10,10,10,24,13,30,0.00,4,,230
2012-11-5,63,52,40,37,34,31,79,56,32,30.30,30.24,30.16,10,10,10,28,15,36,0.00,0,,214
2012-11-6,66,52,38,33,31,28,70,48,26,30.24,30.12,29.95,10,10,8,18,12,23,0.00,0,,215
2012-11-7,64,50,36,32,29,26,70,49,27,29.94,29.84,29.72,10,10,10,29,13,36,T,1,,228
2012-11-8,36,31,25,29,26,23,92,78,64,29.87,29.73,29.63,10,6,0,23,14,30,0.09,8,Fog-Snow,47
2012-11-9,26,19,11,24,18,7,100,92,84,29.91,29.70,29.60,10,4,1,26,16,30,0.12,8,Snow,50
2012-11-10,12,4,-5,7,3,-8,95,84,73,30.26,29.92,29.73,10,4,1,18,6,22,0.01,6,Snow,65
2012-11-11,17,5,-7,7,1,-8,95,81,67,30.52,30.41,30.25,10,10,10,15,3,17,T,1,,222
2012-11-12,32,23,13,22,14,6,75,68,60,30.51,30.41,30.26,10,10,10,23,9,26,0.00,5,,203
2012-11-13,36,30,23,26,22,18,81,73,64,30.38,30.31,30.21,10,10,10,16,7,18,T,5,,209
2012-11-14,39,31,23,29,24,19,85,75,64,30.35,30.24,30.18,10,10,10,20,11,24,0.00,4,,195
2012-11-15,38,28,18,25,20,15,92,76,59,30.44,30.31,30.07,10,10,10,16,8,18,0.00,0,,183
2012-11-16,40,31,22,30,26,20,88,76,64,30.12,30.07,30.03,10,10,10,13,7,15,0.00,4,,173
2012-11-17,47,36,25,33,28,23,85,71,57,30.08,29.96,29.75,10,10,10,15,6,20,0.00,3,,145
2012-11-18,46,37,27,33,25,15,85,58,31,30.05,29.86,29.68,10,10,10,20,8,26,T,2,,226
2012-11-19,48,38,27,33,27,20,75,62,49,30.16,30.07,29.98,10,10,10,29,11,38,0.00,1,,172
2012-11-20,54,48,41,34,32,30,65,56,46,29.98,29.89,29.78,10,10,10,29,17,38,0.00,1,,171
2012-11-21,50,37,24,32,28,18,100,73,46,30.08,29.82,29.65,10,8,1,35,13,51,0.02,5,Snow,201
2012-11-22,35,29,22,20,15,11,75,57,38,30.56,30.41,30.10,10,10,9,22,10,29,T,1,,217
2012-11-23,47,34,21,24,19,13,68,53,38,30.54,30.38,30.17,10,10,10,17,9,21,0.00,0,,200
2012-11-24,47,40,32,31,24,19,64,55,46,30.12,30.05,29.94,10,10,10,25,11,30,0.00,5,,224
2012-11-25,41,30,18,32,27,13,100,68,35,30.30,29.99,29.89,10,9,1,18,6,22,0.04,7,Rain,55
2012-11-26,32,23,14,15,12,9,80,63,46,30.43,30.34,30.28,10,10,10,13,7,14,0.00,0,,191
2012-11-27,43,30,16,23,18,13,69,54,39,30.34,30.25,30.17,10,10,10,15,8,18,0.00,0,,204
2012-11-28,49,38,27,31,23,21,75,55,34,30.17,30.03,29.90,10,10,10,16,7,22,0.00,1,,182
2012-11-29,50,41,31,30,27,24,82,61,39,29.99,29.90,29.81,10,10,10,26,10,32,0.00,3,,179
2012-11-30,51,43,35,36,31,27,92,67,42,29.81,29.70,29.58,10,10,10,23,9,32,0.02,4,Rain,181